createdAt,value
2022-09-24T00:02:41.488Z,96.91
2022-09-24T00:05:44.299Z,97.38
2022-09-24T00:08:47.244Z,97.86
2022-09-24T00:11:51.191Z,98.49
2022-09-24T00:14:53.722Z,98.18
2022-09-24T00:17:57.982Z,98.35
2022-09-24T00:21:00.696Z,98.49
2022-09-24T00:24:07.634Z,98.67
2022-09-24T00:27:09.175Z,98.99
2022-09-24T00:30:12.636Z,99.43
2022-09-24T00:33:16.470Z,99.19
2022-09-24T00:36:19.932Z,99.21
2022-09-24T00:39:22.441Z,99.57
2022-09-24T00:42:25.508Z,99.30
2022-09-24T00:45:30.298Z,98.60
2022-09-24T00:48:35.192Z,98.06
2022-09-24T00:51:38.185Z,98.70
2022-09-24T00:54:43.113Z,98.86
2022-09-24T00:57:46.480Z,99.64
2022-09-24T01:00:50.984Z,99.46
2022-09-24T01:03:57.227Z,99.61
2022-09-24T01:07:00.331Z,99.84
2022-09-24T01:10:03.147Z,97.43
2022-09-24T01:13:18.136Z,98.05
2022-09-24T01:16:28.669Z,97.89
2022-09-24T01:19:56.351Z,98.69
2022-09-24T01:23:10.798Z,98.38
2022-09-24T01:26:32.426Z,97.72
2022-09-24T01:30:03.409Z,98.77
2022-09-24T01:33:13.103Z,98.15
2022-09-24T01:36:17.613Z,95.95
2022-09-24T01:39:21.930Z,96.53
2022-09-24T01:42:27.001Z,96.74
2022-09-24T01:45:32.561Z,96.53
2022-09-24T01:48:37.374Z,96.97
2022-09-24T01:51:44.922Z,96.97
2022-09-24T01:54:51.866Z,97.54
2022-09-24T01:58:01.119Z,97.05
2022-09-24T02:01:08.996Z,97.24
2022-09-24T02:04:17.495Z,97.03
2022-09-24T02:07:25.806Z,97.87
2022-09-24T02:10:33.435Z,97.98
2022-09-24T02:13:40.098Z,97.73
2022-09-24T02:16:47.151Z,97.71
2022-09-24T02:19:51.027Z,98.25
2022-09-24T02:22:56.426Z,98.23
2022-09-24T02:26:02.329Z,97.71
2022-09-24T02:29:05.397Z,98.41
2022-09-24T02:32:11.864Z,98.09
2022-09-24T02:35:13.476Z,98.19
2022-09-24T02:38:17.120Z,98.40
2022-09-24T02:41:22.089Z,98.37
2022-09-24T02:44:25.150Z,98.29
2022-09-24T02:47:29.377Z,98.81
2022-09-24T02:50:31.881Z,99.01
2022-09-24T02:53:34.677Z,98.82
2022-09-24T02:56:37.606Z,99.34
2022-09-24T02:59:40.611Z,99.52
2022-09-24T03:02:44.500Z,99.49
2022-09-24T03:05:47.089Z,99.65
2022-09-24T03:08:49.614Z,99.57
2022-09-24T03:11:52.325Z,100.00
2022-09-24T03:14:54.836Z,99.88
2022-09-24T03:17:58.658Z,98.81
2022-09-24T03:21:03.134Z,99.16
2022-09-24T03:24:05.881Z,99.50
2022-09-24T03:27:08.502Z,99.51
2022-09-24T03:30:29.549Z,100.00
2022-09-24T03:33:35.572Z,99.37
2022-09-24T03:36:38.088Z,98.86
2022-09-24T03:39:40.570Z,100.00
2022-09-24T03:42:43.114Z,99.77
2022-09-24T03:45:45.624Z,100.00
2022-09-24T03:48:50.023Z,99.83
2022-09-24T03:51:52.538Z,100.00
2022-09-24T03:54:55.180Z,99.64
2022-09-24T03:57:57.689Z,99.94
2022-09-24T04:01:00.174Z,99.90
2022-09-24T04:04:04.886Z,99.33
2022-09-24T04:07:07.408Z,100.00
2022-09-24T04:10:10.128Z,100.00
2022-09-24T04:13:12.656Z,99.30
2022-09-24T04:16:15.266Z,99.58
2022-09-24T04:19:19.525Z,100.00
2022-09-24T04:22:22.334Z,100.00
2022-09-24T04:25:25.873Z,100.00
2022-09-24T04:28:28.513Z,99.66
2022-09-24T04:31:32.599Z,100.00
2022-09-24T04:34:36.573Z,100.00
2022-09-24T04:37:39.337Z,100.00
2022-09-24T04:40:41.878Z,100.00
2022-09-24T04:43:46.667Z,100.00
2022-09-24T04:46:49.271Z,100.00
2022-09-24T04:49:53.544Z,100.00
2022-09-24T04:52:56.873Z,100.00
2022-09-24T04:55:59.898Z,100.00
2022-09-24T04:59:02.477Z,100.00
2022-09-24T05:02:09.624Z,100.00
2022-09-24T05:05:14.207Z,100.00
2022-09-24T05:08:17.110Z,100.00
2022-09-24T05:11:20.349Z,100.00
2022-09-24T05:14:22.862Z,100.00
2022-09-24T05:17:25.341Z,100.00
2022-09-24T05:20:29.236Z,100.00
2022-09-24T05:23:31.727Z,100.00
2022-09-24T05:26:51.950Z,100.00
2022-09-24T05:29:54.603Z,100.00
2022-09-24T05:32:57.195Z,100.00
2022-09-24T05:36:01.138Z,100.00
2022-09-24T05:39:04.090Z,100.00
2022-09-24T05:42:08.145Z,100.00
2022-09-24T05:45:12.034Z,100.00
2022-09-24T05:48:14.517Z,100.00
2022-09-24T05:51:18.645Z,100.00
2022-09-24T05:54:21.369Z,100.00
2022-09-24T05:57:23.848Z,100.00
2022-09-24T06:00:26.340Z,100.00
2022-09-24T06:03:29.693Z,100.00
2022-09-24T06:06:34.148Z,100.00
2022-09-24T06:09:36.630Z,100.00
2022-09-24T06:12:39.118Z,100.00
2022-09-24T06:15:42.150Z,100.00
2022-09-24T06:18:45.140Z,100.00
2022-09-24T06:21:48.962Z,100.00
2022-09-24T06:24:51.951Z,100.00
2022-09-24T06:27:56.475Z,100.00
2022-09-24T06:31:01.134Z,100.00
2022-09-24T06:34:03.785Z,100.00
2022-09-24T06:37:07.647Z,100.00
2022-09-24T06:40:11.125Z,100.00
2022-09-24T06:43:14.291Z,100.00
2022-09-24T06:46:16.844Z,100.00
2022-09-24T06:49:19.414Z,100.00
2022-09-24T06:52:23.304Z,100.00
2022-09-24T06:55:26.227Z,100.00
2022-09-24T06:58:29.113Z,100.00
2022-09-24T07:01:31.754Z,100.00
2022-09-24T07:04:34.320Z,100.00
2022-09-24T07:07:38.138Z,100.00
2022-09-24T07:10:43.558Z,100.00
2022-09-24T07:13:46.035Z,100.00
2022-09-24T07:16:48.618Z,100.00
2022-09-24T07:19:51.133Z,100.00
2022-09-24T07:22:55.644Z,100.00
2022-09-24T07:25:58.397Z,100.00
2022-09-24T07:29:00.871Z,100.00
2022-09-24T07:32:04.352Z,100.00
2022-09-24T07:35:07.709Z,100.00
2022-09-24T07:38:12.995Z,100.00
2022-09-24T07:41:15.470Z,100.00
2022-09-24T07:44:20.423Z,100.00
2022-09-24T07:47:23.147Z,100.00
2022-09-24T07:50:26.124Z,100.00
2022-09-24T07:53:29.942Z,100.00
2022-09-24T07:56:33.155Z,100.00
2022-09-24T07:59:35.662Z,100.00
2022-09-24T08:02:38.319Z,100.00
2022-09-24T08:05:45.124Z,100.00
2022-09-24T08:08:52.875Z,100.00
2022-09-24T08:11:55.336Z,100.00
2022-09-24T08:14:57.826Z,100.00
2022-09-24T08:18:02.486Z,100.00
2022-09-24T08:21:06.432Z,100.00
2022-09-24T08:24:10.472Z,100.00
2022-09-24T08:27:17.185Z,100.00
2022-09-24T08:30:21.190Z,100.00
2022-09-24T08:33:23.760Z,100.00
2022-09-24T08:36:27.939Z,100.00
2022-09-24T08:39:31.757Z,100.00
2022-09-24T08:42:41.503Z,100.00
2022-09-24T08:46:05.479Z,100.00
2022-09-24T08:49:13.377Z,100.00
2022-09-24T08:52:27.120Z,100.00
2022-09-24T08:55:38.522Z,100.00
2022-09-24T08:58:47.949Z,100.00
2022-09-24T09:01:56.865Z,100.00
2022-09-24T09:05:06.034Z,100.00
2022-09-24T09:08:42.180Z,100.00
2022-09-24T09:11:40.506Z,100.00
2022-09-24T09:14:47.180Z,100.00
2022-09-24T09:17:53.472Z,100.00
2022-09-24T09:21:02.366Z,100.00
2022-09-24T09:24:06.440Z,100.00
2022-09-24T09:27:15.112Z,100.00
2022-09-24T09:30:20.746Z,100.00
2022-09-24T09:33:36.440Z,100.00
2022-09-24T09:36:53.303Z,100.00
2022-09-24T09:40:10.702Z,100.00
2022-09-24T09:43:15.485Z,100.00
2022-09-24T09:46:24.357Z,100.00
2022-09-24T09:49:32.977Z,100.00
2022-09-24T09:52:38.655Z,100.00
2022-09-24T09:55:41.184Z,100.00
2022-09-24T09:58:47.117Z,100.00
2022-09-24T10:01:55.737Z,100.00
2022-09-24T10:05:00.358Z,100.00
2022-09-24T10:08:02.856Z,100.00
2022-09-24T10:11:06.770Z,100.00
2022-09-24T10:14:13.036Z,100.00
2022-09-24T10:17:19.153Z,100.00
2022-09-24T10:20:27.539Z,100.00
2022-09-24T10:23:36.548Z,100.00
2022-09-24T10:26:45.236Z,100.00
2022-09-24T10:30:11.025Z,100.00
2022-09-24T10:33:13.530Z,100.00
2022-09-24T10:36:20.055Z,100.00
2022-09-24T10:39:22.909Z,100.00
2022-09-24T10:42:28.794Z,100.00
2022-09-24T10:45:48.541Z,100.00
2022-09-24T10:49:00.868Z,100.00
2022-09-24T10:52:17.875Z,100.00
2022-09-24T10:55:34.754Z,100.00
2022-09-24T10:58:58.819Z,100.00
2022-09-24T11:02:22.299Z,100.00
2022-09-24T11:05:30.817Z,100.00
2022-09-24T11:08:57.139Z,100.00
2022-09-24T11:12:07.866Z,100.00
2022-09-24T11:15:24.138Z,100.00
2022-09-24T11:18:45.832Z,100.00
2022-09-24T11:22:04.075Z,100.00
2022-09-24T11:25:24.665Z,100.00
2022-09-24T11:29:08.553Z,100.00
2022-09-24T11:32:19.311Z,100.00
2022-09-24T11:35:35.973Z,100.00
2022-09-24T11:38:55.238Z,100.00
2022-09-24T11:42:06.455Z,100.00
2022-09-24T11:45:34.191Z,100.00
2022-09-24T11:48:55.967Z,100.00
2022-09-24T11:52:05.294Z,100.00
2022-09-24T11:55:18.103Z,100.00
2022-09-24T11:58:28.023Z,100.00
2022-09-24T12:01:34.676Z,100.00
2022-09-24T12:04:47.387Z,100.00
2022-09-24T12:07:56.154Z,100.00
2022-09-24T12:11:09.922Z,100.00
2022-09-24T12:14:17.798Z,100.00
2022-09-24T12:17:27.066Z,100.00
2022-09-24T12:20:31.128Z,100.00
2022-09-24T12:23:40.022Z,100.00
2022-09-24T12:26:43.840Z,100.00
2022-09-24T12:30:10.122Z,100.00
2022-09-24T12:33:18.352Z,100.00
2022-09-24T12:36:25.511Z,100.00
2022-09-24T12:39:36.880Z,100.00
2022-09-24T12:42:44.532Z,100.00
2022-09-24T12:45:47.628Z,100.00
2022-09-24T12:48:51.757Z,100.00
2022-09-24T12:51:56.457Z,100.00
2022-09-24T12:55:03.171Z,100.00
2022-09-24T12:58:07.598Z,100.00
2022-09-24T13:01:15.007Z,100.00
2022-09-24T13:04:28.049Z,100.00
2022-09-24T13:07:33.230Z,100.00
2022-09-24T13:10:37.489Z,100.00
2022-09-24T13:13:44.104Z,100.00
2022-09-24T13:16:49.933Z,100.00
2022-09-24T13:19:58.858Z,100.00
2022-09-24T13:23:14.301Z,100.00
2022-09-24T13:26:39.123Z,100.00
2022-09-24T13:29:42.613Z,100.00
2022-09-24T13:32:58.772Z,100.00
2022-09-24T13:36:07.299Z,100.00
2022-09-24T13:39:17.080Z,100.00
2022-09-24T13:42:34.574Z,100.00
2022-09-24T13:45:41.570Z,100.00
2022-09-24T13:48:50.369Z,100.00
2022-09-24T13:52:00.806Z,100.00
2022-09-24T13:55:11.515Z,100.00
2022-09-24T13:58:28.982Z,100.00
2022-09-24T14:01:39.933Z,100.00
2022-09-24T14:04:43.079Z,100.00
2022-09-24T14:07:55.635Z,100.00
2022-09-24T14:11:09.672Z,100.00
2022-09-24T14:14:19.762Z,100.00
2022-09-24T14:17:22.286Z,100.00
2022-09-24T14:20:27.172Z,100.00
2022-09-24T14:23:35.137Z,100.00
2022-09-24T14:26:42.644Z,100.00
2022-09-24T14:29:51.166Z,100.00
2022-09-24T14:32:57.705Z,100.00
2022-09-24T14:36:03.065Z,100.00
2022-09-24T14:39:06.837Z,100.00
2022-09-24T14:42:14.192Z,100.00
2022-09-24T14:45:22.250Z,100.00
2022-09-24T14:48:30.369Z,100.00
2022-09-24T14:51:33.709Z,100.00
2022-09-24T14:54:37.916Z,100.00
2022-09-24T14:57:43.428Z,100.00
2022-09-24T15:00:54.594Z,100.00
2022-09-24T15:04:00.314Z,100.00
2022-09-24T15:07:02.838Z,100.00
2022-09-24T15:10:07.094Z,100.00
2022-09-24T15:13:19.791Z,100.00
2022-09-24T15:16:30.557Z,100.00
2022-09-24T15:19:33.473Z,100.00
2022-09-24T15:22:35.947Z,100.00
2022-09-24T15:25:39.306Z,100.00
2022-09-24T15:28:41.757Z,100.00
2022-09-24T15:31:45.575Z,100.00
2022-09-24T15:34:48.727Z,100.00
2022-09-24T15:37:51.258Z,100.00
2022-09-24T15:40:53.903Z,100.00
2022-09-24T15:43:58.682Z,100.00
2022-09-24T15:47:02.487Z,100.00
2022-09-24T15:50:05.406Z,100.00
2022-09-24T15:53:08.582Z,100.00
2022-09-24T15:56:11.241Z,100.00
2022-09-24T15:59:14.676Z,100.00
2022-09-24T16:02:22.019Z,100.00
2022-09-24T16:05:25.825Z,100.00
2022-09-24T16:08:28.338Z,100.00
2022-09-24T16:11:31.058Z,100.00
2022-09-24T16:14:33.594Z,100.00
2022-09-24T16:17:38.464Z,100.00
2022-09-24T16:20:41.485Z,100.00
2022-09-24T16:23:43.963Z,100.00
2022-09-24T16:26:46.476Z,100.00
2022-09-24T16:29:49.007Z,100.00
2022-09-24T16:32:53.878Z,100.00
2022-09-24T16:35:56.365Z,100.00
2022-09-24T16:39:00.128Z,100.00
2022-09-24T16:42:02.922Z,100.00
2022-09-24T16:45:07.010Z,100.00
2022-09-24T16:48:12.093Z,100.00
2022-09-24T16:51:14.585Z,100.00
2022-09-24T16:54:18.883Z,100.00
2022-09-24T16:57:21.379Z,100.00
2022-09-24T17:00:23.853Z,100.00
2022-09-24T17:03:27.669Z,100.00
2022-09-24T17:06:31.772Z,100.00
2022-09-24T17:09:52.043Z,100.00
2022-09-24T17:12:54.536Z,100.00
2022-09-24T17:15:57.032Z,100.00
2022-09-24T17:19:01.476Z,100.00
2022-09-24T17:22:03.974Z,100.00
2022-09-24T17:25:07.830Z,100.00
2022-09-24T17:28:12.039Z,100.00
2022-09-24T17:31:16.531Z,100.00
2022-09-24T17:34:20.430Z,100.00
2022-09-24T17:37:23.244Z,100.00
2022-09-24T17:40:26.770Z,100.00
2022-09-24T17:43:30.093Z,100.00
2022-09-24T17:46:35.699Z,100.00
2022-09-24T17:49:39.584Z,100.00
2022-09-24T17:52:42.059Z,100.00
2022-09-24T17:55:48.933Z,100.00
2022-09-24T17:58:52.226Z,100.00
2022-09-24T18:01:54.991Z,100.00
2022-09-24T18:04:58.917Z,100.00
2022-09-24T18:08:01.474Z,100.00
2022-09-24T18:11:05.583Z,100.00
2022-09-24T18:14:08.467Z,100.00
2022-09-24T18:17:10.943Z,100.00
2022-09-24T18:20:14.932Z,100.00
2022-09-24T18:23:17.395Z,100.00
2022-09-24T18:26:22.150Z,100.00
2022-09-24T18:29:26.120Z,100.00
2022-09-24T18:32:31.711Z,100.00
2022-09-24T18:35:35.791Z,100.00
2022-09-24T18:38:38.739Z,100.00
2022-09-24T18:41:43.306Z,100.00
2022-09-24T18:44:46.778Z,100.00
2022-09-24T18:47:49.246Z,100.00
2022-09-24T18:50:53.076Z,100.00
2022-09-24T18:53:56.963Z,100.00
2022-09-24T18:56:59.478Z,100.00
2022-09-24T19:00:02.394Z,100.00
2022-09-24T19:03:05.039Z,100.00
2022-09-24T19:06:10.380Z,100.00
2022-09-24T19:09:17.058Z,100.00
2022-09-24T19:12:21.121Z,100.00
2022-09-24T19:15:25.036Z,100.00
2022-09-24T19:18:27.643Z,100.00
2022-09-24T19:21:31.519Z,100.00
2022-09-24T19:24:34.021Z,100.00
2022-09-24T19:27:36.498Z,100.00
2022-09-24T19:30:39.820Z,100.00
2022-09-24T19:33:42.408Z,100.00
2022-09-24T19:36:46.241Z,100.00
2022-09-24T19:39:48.854Z,100.00
2022-09-24T19:42:51.345Z,100.00
2022-09-24T19:45:55.483Z,100.00
2022-09-24T19:48:58.207Z,100.00
2022-09-24T19:52:04.147Z,100.00
2022-09-24T19:55:07.061Z,100.00
2022-09-24T19:58:09.571Z,100.00
2022-09-24T20:01:16.318Z,100.00
2022-09-24T20:04:20.326Z,100.00
2022-09-24T20:07:24.159Z,100.00
2022-09-24T20:10:26.783Z,100.00
2022-09-24T20:13:29.690Z,100.00
2022-09-24T20:16:33.362Z,100.00
2022-09-24T20:19:36.057Z,100.00
2022-09-24T20:22:39.881Z,100.00
2022-09-24T20:26:00.129Z,100.00
2022-09-24T20:29:03.238Z,100.00
2022-09-24T20:32:06.117Z,100.00
2022-09-24T20:35:08.730Z,100.00
2022-09-24T20:38:12.633Z,100.00
2022-09-24T20:41:17.884Z,100.00
2022-09-24T20:44:22.027Z,100.00
2022-09-24T20:47:24.527Z,100.00
2022-09-24T20:50:27.005Z,100.00
2022-09-24T20:53:31.019Z,100.00
2022-09-24T20:56:33.493Z,100.00
2022-09-24T20:59:36.267Z,100.00
2022-09-24T21:02:41.556Z,100.00
2022-09-24T21:05:44.302Z,100.00
2022-09-24T21:08:48.160Z,100.00
2022-09-24T21:11:53.033Z,100.00
2022-09-24T21:14:55.889Z,100.00
2022-09-24T21:18:21.228Z,100.00
2022-09-24T21:21:23.645Z,100.00
2022-09-24T21:24:31.242Z,100.00
2022-09-24T21:27:34.132Z,100.00
2022-09-24T21:30:36.660Z,100.00
2022-09-24T21:33:39.517Z,100.00
2022-09-24T21:36:44.819Z,100.00
2022-09-24T21:39:48.790Z,100.00
2022-09-24T21:42:52.038Z,100.00
2022-09-24T21:46:01.145Z,100.00
2022-09-24T21:49:03.884Z,100.00
2022-09-24T21:52:06.789Z,100.00
2022-09-24T21:55:13.958Z,100.00
2022-09-24T21:58:16.542Z,100.00
2022-09-24T22:01:22.881Z,100.00
2022-09-24T22:04:25.618Z,100.00
2022-09-24T22:07:28.091Z,100.00
2022-09-24T22:10:31.898Z,100.00
2022-09-24T22:13:36.782Z,100.00
2022-09-24T22:16:39.486Z,100.00
2022-09-24T22:19:42.040Z,100.00
2022-09-24T22:22:44.541Z,100.00
2022-09-24T22:25:49.314Z,100.00
2022-09-24T22:28:51.803Z,100.00
2022-09-24T22:31:54.285Z,100.00
2022-09-24T22:35:14.204Z,100.00
2022-09-24T22:38:16.864Z,100.00
2022-09-24T22:41:21.435Z,100.00
2022-09-24T22:44:23.933Z,100.00
2022-09-24T22:47:26.413Z,100.00
2022-09-24T22:50:28.994Z,100.00
2022-09-24T22:53:34.349Z,100.00
2022-09-24T22:56:38.259Z,100.00
2022-09-24T22:59:40.915Z,100.00
2022-09-24T23:02:43.417Z,100.00
2022-09-24T23:05:46.103Z,100.00
2022-09-24T23:08:49.416Z,100.00
2022-09-24T23:11:53.341Z,100.00
2022-09-24T23:14:56.517Z,100.00
2022-09-24T23:17:58.990Z,100.00
2022-09-24T23:21:01.477Z,100.00
2022-09-24T23:24:07.315Z,100.00
2022-09-24T23:27:11.209Z,100.00
2022-09-24T23:30:13.819Z,100.00
2022-09-24T23:33:16.296Z,100.00
2022-09-24T23:36:19.100Z,100.00
2022-09-24T23:39:21.576Z,100.00
2022-09-24T23:42:25.420Z,100.00
2022-09-24T23:45:28.349Z,100.00
2022-09-24T23:48:30.861Z,100.00
2022-09-24T23:51:33.351Z,100.00
2022-09-24T23:54:37.416Z,100.00
2022-09-24T23:57:41.262Z,100.00
